Time;durP1;ratioP1;P1;durP2;ratioP2;P2;SDS_P1;SDS_P2;PMS_P1;PMS_P2;Temp;Humidity;BMP_temperature;BMP_pressure;BME280_temperature;BME280_humidity;BME280_pressure;Samples;Min_cycle;Max_cycle;Signal;HPM_P1;HPM_P2
2024/03/10 00:00:24;;;;;;;6.67;5.17;;;;;;;8.75;56.53;93584.28;5084541;28;20608;-78
2024/03/10 00:02:50;;;;;;;7.37;5.53;;;;;;;8.74;56.53;93580.06;5072377;28;20233;-78
2024/03/10 00:05:16;;;;;;;6.80;5.73;;;;;;;8.66;56.61;93572.44;5065371;28;20295;-78
2024/03/10 00:07:42;;;;;;;6.77;5.50;;;;;;;8.72;56.31;93574.28;5066649;28;20223;-78
2024/03/10 00:10:14;;;;;;;6.97;5.20;;;;;;;8.62;56.14;93573.78;5066134;28;20237;-78
2024/03/10 00:12:40;;;;;;;6.50;5.77;;;;;;;8.74;55.66;93577.47;5068704;28;20271;-78
2024/03/10 00:15:06;;;;;;;7.03;5.10;;;;;;;8.81;55.33;93574.94;5083613;28;20301;-77
2024/03/10 00:17:32;;;;;;;6.77;5.30;;;;;;;8.83;55.33;93582.53;5060578;28;20249;-78
2024/03/10 00:19:57;;;;;;;6.77;4.80;;;;;;;8.77;55.28;93571.94;5082479;28;20200;-78
2024/03/10 00:22:22;;;;;;;7.23;5.27;;;;;;;8.83;54.86;93575.56;5080333;28;20476;-78
2024/03/10 00:24:49;;;;;;;8.27;5.10;;;;;;;8.80;54.73;93579.31;5082498;28;20212;-78
2024/03/10 00:27:14;;;;;;;6.07;4.70;;;;;;;8.75;54.63;93583.47;5061931;28;20181;-78
2024/03/10 00:29:39;;;;;;;6.73;5.10;;;;;;;8.80;54.28;93586.28;5063698;28;20203;-78
2024/03/10 00:32:07;;;;;;;6.67;5.27;;;;;;;8.78;54.63;93577.91;5067032;28;20245;-78
2024/03/10 00:34:34;;;;;;;5.90;5.00;;;;;;;8.86;54.18;93580.38;5082146;28;20181;-79
2024/03/10 00:37:00;;;;;;;6.37;4.80;;;;;;;8.80;54.00;93579.31;5101880;28;20570;-78
2024/03/10 00:39:26;;;;;;;6.47;4.97;;;;;;;8.84;54.47;93576.41;5064989;28;20187;-79
2024/03/10 00:41:51;;;;;;;6.13;4.87;;;;;;;8.78;54.26;93576.13;5065817;28;20220;-78
2024/03/10 00:44:17;;;;;;;6.30;5.07;;;;;;;8.84;54.35;93569.44;5079824;28;20188;-78
2024/03/10 00:46:42;;;;;;;5.83;5.10;;;;;;;8.82;53.94;93571.38;5066476;28;20214;-78
2024/03/10 00:49:08;;;;;;;8.53;5.03;;;;;;;8.75;54.03;93567.94;5100483;28;20176;-78
2024/03/10 00:51:35;;;;;;;6.27;4.53;;;;;;;8.76;53.68;93572.94;5082573;28;20199;-79
2024/03/10 00:54:00;;;;;;;8.40;5.00;;;;;;;8.75;53.36;93576.50;5066048;28;20185;-78
2024/03/10 00:56:26;;;;;;;5.40;4.30;;;;;;;8.74;53.30;93567.13;5080236;28;20207;-78
2024/03/10 00:58:51;;;;;;;5.33;3.80;;;;;;;8.72;52.97;93568.28;5081291;28;20184;-78
2024/03/10 01:01:16;;;;;;;6.50;4.30;;;;;;;8.82;52.69;93568.00;5066186;28;20203;-78
2024/03/10 01:03:42;;;;;;;7.07;4.50;;;;;;;8.86;52.60;93559.69;5066694;28;20272;-79
2024/03/10 01:06:08;;;;;;;4.93;4.10;;;;;;;8.85;52.32;93555.50;5067031;28;20204;-78
2024/03/10 01:08:34;;;;;;;5.17;3.90;;;;;;;8.82;52.49;93555.84;5065917;28;20184;-78
2024/03/10 01:11:00;;;;;;;6.53;4.53;;;;;;;8.78;52.03;93558.00;5076844;28;20709;-78
2024/03/10 01:13:27;;;;;;;6.63;4.07;;;;;;;8.91;51.76;93551.34;5080432;28;20177;-78
2024/03/10 01:15:53;;;;;;;6.33;4.20;;;;;;;8.86;51.46;93559.69;5065566;28;20326;-78
2024/03/10 01:18:22;;;;;;;5.60;4.10;;;;;;;8.88;51.23;93547.34;5081610;28;20180;-78
2024/03/10 01:20:48;;;;;;;5.40;3.90;;;;;;;8.87;51.25;93544.94;5064024;28;20238;-78
2024/03/10 01:23:13;;;;;;;4.67;3.43;;;;;;;8.95;50.82;93550.00;5078536;28;20615;-78
2024/03/10 01:25:38;;;;;;;6.73;3.20;;;;;;;8.89;50.75;93538.59;5100693;28;20219;-77
2024/03/10 01:28:07;;;;;;;4.07;3.27;;;;;;;8.94;50.67;93535.47;5098888;28;20654;-78
2024/03/10 01:30:33;;;;;;;6.30;3.03;;;;;;;8.93;50.17;93539.84;5077381;28;20608;-78
2024/03/10 01:32:58;;;;;;;3.93;3.00;;;;;;;8.94;50.21;93536.25;5080526;28;20184;-78
2024/03/10 01:35:24;;;;;;;3.60;2.90;;;;;;;8.95;50.12;93532.69;5059866;28;20261;-78
2024/03/10 01:37:49;;;;;;;3.63;2.90;;;;;;;8.98;49.50;93529.72;5065312;28;20202;-78
2024/03/10 01:40:15;;;;;;;3.07;2.70;;;;;;;8.97;49.79;93533.28;5080046;28;20191;-78
2024/03/10 01:42:40;;;;;;;4.10;2.50;;;;;;;8.94;49.41;93527.69;5081601;28;20211;-78
2024/03/10 01:45:06;;;;;;;3.73;3.10;;;;;;;8.95;49.51;93529.28;5066253;28;20709;-78
2024/03/10 01:47:31;;;;;;;2.70;2.50;;;;;;;8.90;49.73;93526.44;5083092;28;20634;-78
2024/03/10 01:49:57;;;;;;;2.60;2.40;;;;;;;8.80;49.87;93530.16;5065899;28;20189;-78
2024/03/10 01:52:23;;;;;;;3.60;2.60;;;;;;;8.79;50.24;93525.16;5081175;28;20617;-78
2024/03/10 01:54:48;;;;;;;4.13;2.37;;;;;;;8.76;49.77;93510.03;5066177;28;20561;-78
2024/03/10 01:57:14;;;;;;;3.33;2.60;;;;;;;8.76;49.61;93517.78;5082618;28;20191;-78
2024/03/10 01:59:40;;;;;;;2.73;2.40;;;;;;;8.73;49.59;93508.59;5082949;28;20181;-78
2024/03/10 02:02:05;;;;;;;2.87;2.43;;;;;;;8.74;50.01;93509.38;5080227;28;20259;-78
2024/03/10 02:04:31;;;;;;;3.10;2.40;;;;;;;8.72;49.70;93507.00;5073764;28;20208;-78
2024/03/10 02:06:57;;;;;;;2.87;2.30;;;;;;;8.71;49.73;93499.41;5066417;28;20200;-78
2024/03/10 02:09:22;;;;;;;3.10;2.50;;;;;;;8.64;49.93;93496.75;5082771;28;20253;-78
2024/03/10 02:11:48;;;;;;;3.43;2.40;;;;;;;8.65;49.70;93498.38;5101643;28;20321;-78
2024/03/10 02:14:13;;;;;;;4.03;2.90;;;;;;;8.60;50.10;93492.97;5082354;28;20220;-78
2024/03/10 02:16:39;;;;;;;3.23;2.50;;;;;;;8.64;50.05;93496.75;5079937;28;20215;-78
2024/03/10 02:19:06;;;;;;;3.40;2.60;;;;;;;8.63;49.70;93487.41;5064016;28;20204;-78
2024/03/10 02:21:32;;;;;;;3.57;2.50;;;;;;;8.64;49.39;93483.03;5082631;28;20220;-78
2024/03/10 02:24:12;;;;;;;3.77;2.67;;;;;;;8.66;49.51;93479.28;5065018;28;20184;-77
2024/03/10 02:26:45;;;;;;;3.23;2.07;;;;;;;8.72;48.72;93478.53;5062659;28;20774;-78
2024/03/10 02:29:25;;;;;;;2.70;2.37;;;;;;;8.73;48.66;93468.97;5066763;28;20359;-78
2024/03/10 02:48:17;;;;;;;2.70;2.50;;;;;;;8.80;48.89;93455.09;5088741;28;20196;-78
2024/03/10 02:50:44;;;;;;;3.30;2.70;;;;;;;8.80;49.07;93459.47;5084556;28;20189;-78
2024/03/10 02:53:09;;;;;;;3.13;2.40;;;;;;;8.73;49.41;93456.84;5068366;28;20283;-78
2024/03/10 02:55:35;;;;;;;3.40;2.27;;;;;;;8.67;49.56;93444.66;5101087;28;20620;-78
2024/03/10 02:58:03;;;;;;;4.93;2.87;;;;;;;8.65;49.77;93433.69;5104150;28;20417;-78
2024/03/10 03:00:30;;;;;;;3.30;2.67;;;;;;;8.59;49.71;93429.28;5070136;28;20184;-78
2024/03/10 03:02:55;;;;;;;3.57;3.03;;;;;;;8.69;50.13;93419.41;5079312;28;20304;-78
2024/03/10 03:05:21;;;;;;;5.87;3.17;;;;;;;8.67;50.74;93405.84;5067633;28;20215;-78
2024/03/10 03:07:47;;;;;;;3.77;3.20;;;;;;;8.68;50.92;93414.41;5085241;28;20180;-78
2024/03/10 03:10:13;;;;;;;6.40;3.47;;;;;;;8.68;51.34;93407.44;5085263;28;20279;-78
2024/03/10 03:12:38;;;;;;;4.10;3.50;;;;;;;8.76;51.53;93406.50;5083101;28;20204;-78
2024/03/10 03:15:04;;;;;;;4.30;3.37;;;;;;;8.72;51.45;93403.47;5085126;28;20254;-78
2024/03/10 03:17:30;;;;;;;4.97;3.27;;;;;;;8.74;51.79;93396.31;5067447;28;20662;-78
2024/03/10 03:19:59;;;;;;;7.13;4.10;;;;;;;8.69;51.92;93390.13;5066715;28;20791;-78
2024/03/10 03:22:25;;;;;;;5.83;4.17;;;;;;;8.69;52.35;93396.09;5082728;28;20200;-78
2024/03/10 03:24:51;;;;;;;4.20;3.70;;;;;;;8.68;52.37;93389.34;5067884;28;20193;-77
2024/03/10 03:27:16;;;;;;;6.03;3.97;;;;;;;8.65;52.46;93392.28;5066589;28;20690;-78
2024/03/10 03:29:41;;;;;;;5.90;4.03;;;;;;;8.72;52.77;93387.97;5103455;28;20192;-78
2024/03/10 03:32:07;;;;;;;5.33;3.80;;;;;;;8.58;53.38;93382.91;5083534;28;20172;-78
2024/03/10 03:34:33;;;;;;;4.70;4.20;;;;;;;8.63;53.49;93378.75;5084559;28;20188;-78
2024/03/10 03:36:58;;;;;;;4.63;4.00;;;;;;;8.45;54.34;93374.03;5103895;28;20202;-77
2024/03/10 03:39:24;;;;;;;7.97;4.13;;;;;;;8.48;54.12;93365.09;5084632;28;20724;-78
2024/03/10 03:41:49;;;;;;;5.47;4.13;;;;;;;8.42;54.64;93364.06;5067865;28;20184;-78
2024/03/10 03:44:14;;;;;;;6.33;4.43;;;;;;;8.29;55.15;93358.75;5100353;28;20196;-78
2024/03/10 03:46:40;;;;;;;7.23;4.40;;;;;;;8.47;55.20;93366.06;5066654;28;20216;-78
2024/03/10 03:49:05;;;;;;;6.90;4.57;;;;;;;8.31;55.24;93371.50;5099457;28;20744;-78
2024/03/10 03:51:30;;;;;;;7.20;4.43;;;;;;;8.47;55.17;93374.63;5084781;28;20187;-78
2024/03/10 03:53:56;;;;;;;5.47;4.50;;;;;;;8.44;55.21;93393.13;5101763;28;20176;-78
2024/03/10 03:56:22;;;;;;;5.60;4.40;;;;;;;8.48;55.13;93391.78;5082791;28;20211;-78
2024/03/10 03:58:49;;;;;;;5.03;4.00;;;;;;;8.51;55.19;93388.00;5084720;28;20181;-78
2024/03/10 04:01:16;;;;;;;4.23;3.83;;;;;;;8.40;55.58;93373.81;5083452;28;20177;-78
2024/03/10 04:03:42;;;;;;;8.10;5.10;;;;;;;8.33;56.04;93361.78;5067250;28;20216;-77
2024/03/10 04:06:08;;;;;;;6.73;5.13;;;;;;;8.24;56.67;93364.50;5101311;28;20204;-78
2024/03/10 04:08:33;;;;;;;7.13;4.83;;;;;;;8.19;56.67;93355.69;5067942;28;20742;-78
2024/03/10 04:10:58;;;;;;;4.60;4.20;;;;;;;8.12;56.70;93340.13;5067394;28;20183;-78
2024/03/10 04:13:24;;;;;;;8.10;4.90;;;;;;;8.17;56.17;93327.44;5066837;28;20195;-78
2024/03/10 04:15:49;;;;;;;7.60;4.53;;;;;;;8.18;55.43;93323.06;5084319;28;20211;-78
2024/03/10 04:18:15;;;;;;;4.53;4.07;;;;;;;8.16;56.03;93318.09;5066685;28;20184;-78
2024/03/10 04:20:41;;;;;;;6.47;4.50;;;;;;;8.14;55.55;93309.72;5082071;28;20239;-78
2024/03/10 04:23:07;;;;;;;4.40;4.00;;;;;;;8.13;55.91;93321.06;5084004;28;20216;-78
2024/03/10 04:25:33;;;;;;;6.07;4.60;;;;;;;8.08;56.62;93333.72;5084181;28;20204;-78
2024/03/10 04:27:58;;;;;;;5.20;4.33;;;;;;;8.04;57.08;93326.53;5062782;28;20191;-78
2024/03/10 04:30:23;;;;;;;7.43;4.20;;;;;;;7.99;57.61;93334.03;5068307;28;20238;-78
2024/03/10 04:32:49;;;;;;;5.00;4.17;;;;;;;7.91;57.63;93322.84;5083994;28;20185;-78
2024/03/10 04:35:15;;;;;;;6.90;4.57;;;;;;;7.92;57.79;93327.03;5084010;28;20200;-78
2024/03/10 04:37:41;;;;;;;5.10;4.20;;;;;;;7.82;57.49;93323.16;5067709;28;20249;-78
2024/03/10 04:40:10;;;;;;;7.83;4.20;;;;;;;7.88;56.45;93319.84;5081403;28;20180;-77
2024/03/10 04:42:38;;;;;;;5.57;3.90;;;;;;;7.94;56.15;93316.50;5099974;28;20216;-77
2024/03/10 04:45:03;;;;;;;4.67;3.83;;;;;;;7.90;56.07;93299.78;5063653;28;20206;-77
2024/03/10 04:47:29;;;;;;;5.90;3.80;;;;;;;7.92;55.90;93288.25;5081963;28;20283;-78
2024/03/10 04:49:55;;;;;;;3.97;3.57;;;;;;;7.96;55.71;93299.03;5083161;28;20218;-78
2024/03/10 04:52:21;;;;;;;4.33;3.87;;;;;;;7.90;55.61;93294.59;5096561;28;20188;-78
2024/03/10 04:54:47;;;;;;;5.03;3.90;;;;;;;7.89;55.45;93298.97;5065661;28;20192;-78
2024/03/10 04:57:12;;;;;;;7.00;4.10;;;;;;;7.91;55.14;93293.63;5063840;28;20195;-78
2024/03/10 04:59:37;;;;;;;5.40;3.57;;;;;;;7.91;55.18;93286.66;5062951;28;20184;-77
2024/03/10 05:02:03;;;;;;;4.90;3.63;;;;;;;7.99;55.42;93301.25;5079645;28;20197;-78
2024/03/10 05:04:28;;;;;;;4.10;3.60;;;;;;;8.08;54.79;93310.47;5072291;28;20196;-77
2024/03/10 05:06:55;;;;;;;4.63;3.40;;;;;;;7.99;54.93;93327.09;5082884;28;20208;-78
2024/03/10 05:09:21;;;;;;;4.90;3.93;;;;;;;8.02;54.75;93331.88;5066360;28;20224;-78
2024/03/10 05:11:46;;;;;;;5.80;3.53;;;;;;;8.00;54.73;93333.06;5076993;28;20196;-78
2024/03/10 05:14:12;;;;;;;4.80;3.67;;;;;;;8.07;55.20;93332.13;5065202;28;20196;-78
2024/03/10 05:16:38;;;;;;;6.07;3.73;;;;;;;8.03;55.31;93325.72;5079879;28;20216;-77
2024/03/10 05:19:04;;;;;;;4.30;3.90;;;;;;;7.98;55.64;93322.91;5065791;28;20268;-78
2024/03/10 05:21:30;;;;;;;4.37;3.50;;;;;;;7.93;55.71;93322.66;5058518;28;20673;-77
2024/03/10 05:23:55;;;;;;;4.47;3.27;;;;;;;7.91;55.98;93316.88;5079597;28;20204;-78
2024/03/10 05:26:20;;;;;;;4.47;3.57;;;;;;;7.83;56.15;93315.22;5081227;28;20234;-78
2024/03/10 05:28:46;;;;;;;4.70;3.67;;;;;;;7.80;56.10;93307.03;5063533;28;20211;-78
2024/03/10 05:31:44;;;;;;;4.77;3.77;;;;;;;7.97;55.71;93305.81;5079256;28;20196;-77
2024/03/10 05:34:10;;;;;;;5.10;3.80;;;;;;;7.90;55.97;93310.13;5001791;28;20309;-78
2024/03/10 05:36:35;;;;;;;4.67;3.77;;;;;;;7.79;55.91;93315.78;5000292;28;20238;-78
2024/03/10 05:39:01;;;;;;;5.07;3.97;;;;;;;7.92;56.03;93329.59;4998486;28;20621;-77
2024/03/10 05:41:26;;;;;;;5.13;3.97;;;;;;;7.80;55.88;93338.84;4998110;28;20191;-78
2024/03/10 05:43:51;;;;;;;5.43;3.87;;;;;;;7.89;55.63;93349.88;4997947;28;20235;-77
2024/03/10 05:46:17;;;;;;;4.80;4.00;;;;;;;7.90;55.97;93351.47;4996080;28;20207;-77
2024/03/10 05:48:42;;;;;;;4.77;3.43;;;;;;;7.89;55.91;93352.44;5017441;28;20203;-78
2024/03/10 05:51:12;;;;;;;5.00;3.70;;;;;;;7.84;56.37;93357.34;5014134;28;20328;-77
2024/03/10 05:53:38;;;;;;;5.60;4.17;;;;;;;7.74;56.61;93347.31;5000203;28;20191;-77
2024/03/10 05:56:04;;;;;;;6.20;4.70;;;;;;;7.73;56.78;93343.16;4997422;28;20701;-78
2024/03/10 05:58:32;;;;;;;5.20;4.33;;;;;;;7.69;57.28;93349.69;5001274;28;20187;-78
2024/03/10 06:00:57;;;;;;;5.73;3.70;;;;;;;7.62;57.47;93339.28;5013360;28;20192;-78
2024/03/10 06:03:23;;;;;;;4.80;3.57;;;;;;;7.60;57.49;93335.28;4983725;28;20227;-78
2024/03/10 06:05:48;;;;;;;7.13;4.27;;;;;;;7.62;57.27;93326.34;5002373;28;20777;-78
2024/03/10 06:08:13;;;;;;;4.67;3.90;;;;;;;7.58;57.72;93322.53;5000349;28;20194;-78
2024/03/10 06:10:39;;;;;;;5.27;4.10;;;;;;;7.62;57.37;93320.38;5093377;28;20197;-78
2024/03/10 06:13:04;;;;;;;5.37;4.20;;;;;;;7.55;57.85;93304.81;5065589;28;20184;-78
2024/03/10 06:15:31;;;;;;;5.13;3.87;;;;;;;7.55;57.69;93296.28;5082925;28;20204;-78
2024/03/10 06:18:15;;;;;;;5.97;4.63;;;;;;;7.58;57.39;93307.03;5083503;28;20275;-77
2024/03/10 06:26:14;;;;;;;6.50;4.00;;;;;;;7.67;57.02;93329.16;5098933;28;20239;-77
2024/03/10 06:28:39;;;;;;;4.43;3.63;;;;;;;7.64;57.26;93318.41;5074438;28;20189;-77
2024/03/10 06:31:05;;;;;;;4.40;3.77;;;;;;;7.66;56.88;93329.34;5096804;28;20184;-77
2024/03/10 06:33:30;;;;;;;5.10;3.63;;;;;;;7.64;57.28;93321.78;5079353;28;20280;-77
2024/03/10 06:35:58;;;;;;;4.90;3.97;;;;;;;7.75;57.08;93317.91;5083165;28;20213;-77
2024/03/10 06:38:23;;;;;;;4.23;3.67;;;;;;;7.71;57.04;93321.06;5063838;28;20193;-77
2024/03/10 06:40:49;;;;;;;5.20;3.50;;;;;;;7.79;56.66;93323.53;5097551;28;20181;-77
2024/03/10 06:43:14;;;;;;;5.63;3.80;;;;;;;7.74;57.03;93338.78;5079971;28;20240;-78
2024/03/10 06:45:39;;;;;;;5.17;4.00;;;;;;;7.72;57.19;93338.16;5077225;28;20201;-77
2024/03/10 06:48:06;;;;;;;4.93;4.10;;;;;;;7.78;56.31;93338.25;5076007;28;20720;-77
2024/03/10 06:50:32;;;;;;;4.90;3.60;;;;;;;7.79;56.63;93341.63;5070152;28;20237;-77
2024/03/10 06:52:57;;;;;;;5.33;3.57;;;;;;;7.89;56.04;93349.88;5067284;28;20176;-77
2024/03/10 06:55:22;;;;;;;4.10;3.43;;;;;;;7.84;56.19;93334.91;5081764;28;20633;-77
2024/03/10 06:57:48;;;;;;;4.47;3.80;;;;;;;7.89;55.80;93336.94;5102500;28;20192;-78
2024/03/10 07:00:13;;;;;;;4.53;3.43;;;;;;;7.96;55.44;93322.31;5097959;28;20609;-77
2024/03/10 07:02:45;;;;;;;3.27;2.97;;;;;;;8.00;55.53;93314.97;5096884;28;20204;-78
2024/03/10 07:05:11;;;;;;;4.23;2.73;;;;;;;7.90;54.90;93310.13;5066141;28;20200;-77
2024/03/10 07:07:37;;;;;;;4.43;3.57;;;;;;;7.98;54.59;93316.94;5082625;28;20229;-78
2024/03/10 07:10:04;;;;;;;4.80;3.03;;;;;;;7.95;53.97;93312.91;5083416;28;20676;-78
2024/03/10 07:12:30;;;;;;;4.33;2.83;;;;;;;8.04;53.22;93306.66;5066492;28;20550;-77
2024/03/10 07:14:57;;;;;;;3.63;2.80;;;;;;;8.09;52.78;93304.31;5067392;28;20177;-78
2024/03/10 07:17:24;;;;;;;3.20;2.40;;;;;;;8.11;52.55;93297.16;5082076;28;20211;-78
2024/03/10 07:19:50;;;;;;;4.20;2.60;;;;;;;8.20;52.07;93290.06;5083913;28;20184;-78
2024/03/10 07:22:15;;;;;;;3.10;2.80;;;;;;;8.22;51.84;93280.34;5075795;28;20213;-78
2024/03/10 07:24:40;;;;;;;3.50;3.00;;;;;;;8.22;52.14;93280.34;5084866;28;21036;-77
2024/03/10 07:27:06;;;;;;;4.80;2.60;;;;;;;8.18;51.81;93272.16;5080449;28;20208;-78
2024/03/10 07:29:32;;;;;;;3.63;2.70;;;;;;;8.39;51.43;93273.09;5081178;28;20560;-78
2024/03/10 07:31:57;;;;;;;4.57;2.97;;;;;;;8.47;51.64;93270.38;5066723;28;20242;-77
2024/03/10 07:34:22;;;;;;;4.87;3.03;;;;;;;8.51;51.24;93284.53;5079505;28;20297;-77
2024/03/10 07:36:48;;;;;;;3.50;2.80;;;;;;;8.78;50.87;93293.25;5098381;28;20216;-77
2024/03/10 07:39:14;;;;;;;3.07;2.50;;;;;;;8.87;50.68;93271.41;5063268;28;20173;-77
2024/03/10 07:41:41;;;;;;;4.00;3.20;;;;;;;9.01;50.61;93267.06;5065398;28;20197;-78
2024/03/10 07:44:07;;;;;;;3.47;3.07;;;;;;;9.05;50.42;93263.91;5057400;28;20197;-77
2024/03/10 07:46:32;;;;;;;3.30;2.90;;;;;;;9.23;50.63;93265.94;5076797;28;20238;-77
2024/03/10 07:49:00;;;;;;;3.80;2.63;;;;;;;9.21;50.00;93273.13;5079407;28;20272;-77
2024/03/10 07:51:27;;;;;;;3.73;2.70;;;;;;;9.39;49.29;93300.28;5080791;28;20296;-78
2024/03/10 07:53:52;;;;;;;2.83;2.47;;;;;;;9.44;49.81;93316.00;5099224;28;20538;-78
2024/03/10 07:56:18;;;;;;;6.60;4.70;;;;;;;9.71;49.65;93322.06;5077974;28;20202;-77
2024/03/10 07:58:43;;;;;;;17.37;8.47;;;;;;;9.79;49.38;93320.09;5067769;28;20181;-77
2024/03/10 08:01:09;;;;;;;23.10;12.10;;;;;;;9.82;49.35;93314.53;5079797;28;20249;-77
2024/03/10 08:03:35;;;;;;;23.03;12.47;;;;;;;9.83;49.33;93321.31;5077683;28;20730;-78
2024/03/10 08:06:00;;;;;;;14.53;8.77;;;;;;;10.08;49.07;93325.94;5081673;28;20216;-78
2024/03/10 08:08:27;;;;;;;11.67;8.00;;;;;;;10.19;48.77;93327.94;5079104;28;20192;-78
2024/03/10 08:10:53;;;;;;;5.70;5.00;;;;;;;10.11;48.52;93325.53;5067713;28;20208;-78
2024/03/10 08:13:18;;;;;;;3.47;3.07;;;;;;;10.06;48.99;93333.88;5062126;28;20731;-78
2024/03/10 08:15:44;;;;;;;3.00;2.70;;;;;;;10.17;48.71;93330.72;5067174;28;20265;-77
2024/03/10 08:18:09;;;;;;;3.17;2.47;;;;;;;10.18;48.49;93324.53;5065229;28;20173;-78
2024/03/10 08:20:35;;;;;;;3.00;2.63;;;;;;;10.05;48.75;93316.72;5071533;28;20200;-78
2024/03/10 08:23:04;;;;;;;4.70;2.60;;;;;;;9.99;48.04;93308.97;5089525;28;20273;-78
2024/03/10 08:25:30;;;;;;;2.57;2.20;;;;;;;10.12;47.56;93307.16;5061655;28;20196;-78
2024/03/10 08:27:56;;;;;;;4.60;2.77;;;;;;;9.91;47.44;93300.38;5061548;28;20270;-78
2024/03/10 08:30:21;;;;;;;3.80;2.70;;;;;;;9.98;47.71;93287.41;5059380;28;20188;-77
2024/03/10 08:32:48;;;;;;;2.97;2.57;;;;;;;9.97;48.10;93292.78;5075331;28;20177;-78
2024/03/10 08:35:13;;;;;;;3.60;2.40;;;;;;;10.17;47.89;93293.63;5092516;28;20213;-78
2024/03/10 08:37:39;;;;;;;2.83;2.30;;;;;;;10.21;48.50;93300.00;5075685;28;20196;-78
2024/03/10 08:40:10;;;;;;;2.73;2.43;;;;;;;10.38;47.62;93287.44;5059977;28;20181;-78
2024/03/10 08:42:37;;;;;;;3.40;2.80;;;;;;;10.37;46.97;93271.09;5060741;28;20303;-78
2024/03/10 08:45:04;;;;;;;3.40;2.27;;;;;;;10.34;47.12;93284.47;5077489;28;20291;-76
2024/03/10 08:47:29;;;;;;;3.40;2.50;;;;;;;10.43;47.17;93277.28;5074912;28;20200;-77
2024/03/10 08:49:55;;;;;;;3.10;2.80;;;;;;;10.34;46.93;93278.47;5095835;28;20176;-78
2024/03/10 08:52:20;;;;;;;3.37;2.47;;;;;;;10.50;47.28;93278.03;5076888;28;20252;-77
2024/03/10 08:54:46;;;;;;;2.80;2.23;;;;;;;10.57;47.12;93284.03;5076733;28;20230;-78
2024/03/10 08:57:12;;;;;;;3.03;2.50;;;;;;;10.34;47.04;93279.28;5063323;28;20204;-78
2024/03/10 08:59:37;;;;;;;2.90;2.60;;;;;;;10.47;46.88;93289.63;5076677;28;20212;-77
2024/03/10 09:02:03;;;;;;;3.23;2.60;;;;;;;10.57;47.80;93284.03;5078101;28;20665;-78
2024/03/10 09:04:29;;;;;;;2.90;2.60;;;;;;;10.66;47.28;93282.00;5063028;28;20220;-78
2024/03/10 09:06:54;;;;;;;3.93;2.70;;;;;;;10.80;46.75;93283.59;5068320;28;20204;-78
2024/03/10 09:09:22;;;;;;;3.70;2.57;;;;;;;10.66;47.05;93282.81;5068861;28;20181;-77
2024/03/10 09:11:48;;;;;;;2.70;2.40;;;;;;;10.97;46.47;93278.75;5083256;28;20181;-78
2024/03/10 09:14:14;;;;;;;3.37;2.60;;;;;;;11.26;46.46;93287.81;5079456;28;20176;-76
2024/03/10 09:16:39;;;;;;;3.57;2.50;;;;;;;11.31;46.70;93296.59;5095034;28;20212;-77
2024/03/10 09:19:07;;;;;;;3.40;2.80;;;;;;;11.80;45.82;93308.16;5061248;28;20184;-76
2024/03/10 09:21:36;;;;;;;3.07;2.60;;;;;;;11.84;45.78;93308.56;5078319;28;20173;-78
2024/03/10 09:24:01;;;;;;;2.73;2.43;;;;;;;12.09;44.64;93298.16;5078917;28;20209;-78
2024/03/10 09:26:28;;;;;;;2.83;2.23;;;;;;;11.98;44.00;93302.25;5064221;28;20219;-78
2024/03/10 09:28:55;;;;;;;2.63;2.30;;;;;;;11.98;44.22;93317.84;5097697;28;20199;-77
2024/03/10 09:31:22;;;;;;;4.67;2.43;;;;;;;11.75;44.84;93331.38;5058048;28;20207;-78
2024/03/10 09:33:47;;;;;;;2.87;2.67;;;;;;;12.04;44.61;93327.44;5062804;28;20182;-78
2024/03/10 09:36:13;;;;;;;3.73;2.47;;;;;;;11.94;44.56;93329.69;5079358;28;20267;-78
2024/03/10 09:38:40;;;;;;;5.80;2.20;;;;;;;12.16;45.12;93324.94;5063017;28;20184;-78
2024/03/10 09:41:08;;;;;;;2.93;2.30;;;;;;;12.21;44.54;93321.72;5064730;28;20604;-78
2024/03/10 09:43:34;;;;;;;3.03;2.73;;;;;;;12.32;43.98;93311.41;5080991;28;20204;-78
2024/03/10 09:45:59;;;;;;;2.57;2.30;;;;;;;12.36;43.88;93304.75;5081206;28;20211;-78
2024/03/10 09:48:25;;;;;;;2.30;2.03;;;;;;;12.27;44.12;93306.03;5078716;28;20186;-78
2024/03/10 09:50:51;;;;;;;2.50;2.30;;;;;;;12.44;44.02;93307.09;5064753;28;20180;-77
2024/03/10 09:53:17;;;;;;;2.93;2.27;;;;;;;12.60;43.56;93295.34;5081318;28;20200;-78
2024/03/10 09:55:43;;;;;;;3.03;2.60;;;;;;;12.51;43.54;93301.03;5081047;28;20617;-78
2024/03/10 09:58:12;;;;;;;4.40;2.70;;;;;;;12.38;43.96;93310.56;5080375;28;20180;-77
2024/03/10 10:00:47;;;;;;;2.20;2.00;;;;;;;12.56;43.00;93311.63;5082778;28;20233;-78
2024/03/10 10:03:14;;;;;;;10.17;6.87;;;;;;;12.75;43.52;93302.81;5064365;28;20222;-78
2024/03/10 10:05:44;;;;;;;4.13;3.67;;;;;;;12.51;43.56;93307.03;5065581;28;20295;-77
2024/03/10 10:08:13;;;;;;;3.07;2.60;;;;;;;12.59;42.41;93295.56;5064660;28;20266;-78
2024/03/10 10:10:51;;;;;;;3.20;2.17;;;;;;;12.92;42.98;93284.81;5085435;28;20728;-78
2024/03/10 10:13:21;;;;;;;2.47;2.13;;;;;;;12.90;43.17;93276.44;5065879;28;20196;-78
2024/03/10 10:15:47;;;;;;;2.50;2.30;;;;;;;13.08;43.35;93271.22;5078726;28;20708;-78
2024/03/10 10:18:15;;;;;;;3.17;2.10;;;;;;;13.05;42.67;93287.28;5082375;28;20180;-78
2024/03/10 10:20:51;;;;;;;3.03;2.40;;;;;;;13.15;42.67;93284.94;5083054;28;20210;-78
2024/03/10 10:23:21;;;;;;;3.13;2.73;;;;;;;13.13;43.42;93284.38;5068161;28;20207;-78
2024/03/10 10:25:47;;;;;;;4.00;2.27;;;;;;;12.86;42.99;93272.66;5075222;28;20287;-78
2024/03/10 10:28:13;;;;;;;2.60;2.27;;;;;;;13.14;42.03;93274.75;5077605;28;20273;-78
2024/03/10 10:30:40;;;;;;;2.53;2.17;;;;;;;12.97;43.03;93285.75;5063884;28;20189;-78
2024/03/10 10:33:08;;;;;;;2.60;2.17;;;;;;;13.18;42.72;93281.94;5076819;28;20650;-78
2024/03/10 10:35:39;;;;;;;2.20;2.00;;;;;;;13.15;42.31;93282.34;5064485;28;20256;-78
2024/03/10 10:38:12;;;;;;;2.37;1.87;;;;;;;13.39;42.15;93292.94;5093422;28;20180;-78
2024/03/10 10:40:54;;;;;;;2.43;1.90;;;;;;;13.51;42.19;93291.97;5076368;28;20188;-78
2024/03/10 10:43:21;;;;;;;2.57;2.30;;;;;;;13.23;42.73;93287.31;5060906;28;20822;-77
2024/03/10 10:45:48;;;;;;;2.57;2.20;;;;;;;13.43;41.85;93281.03;5074758;28;20981;-78
2024/03/10 10:48:14;;;;;;;2.30;2.00;;;;;;;13.60;41.86;93289.84;5072961;28;20196;-77
2024/03/10 10:50:42;;;;;;;2.40;2.20;;;;;;;13.42;41.71;93277.66;5080978;28;20177;-78
2024/03/10 10:53:10;;;;;;;4.07;2.27;;;;;;;13.53;41.98;93279.53;5095573;28;20189;-78
2024/03/10 10:55:39;;;;;;;2.47;1.90;;;;;;;13.44;42.13;93273.03;5067336;28;20293;-78
2024/03/10 10:58:05;;;;;;;3.57;2.30;;;;;;;13.11;42.21;93273.38;5095511;28;20176;-78
2024/03/10 11:00:32;;;;;;;2.90;2.57;;;;;;;12.73;43.30;93263.19;5072642;28;20600;-78
2024/03/10 11:03:08;;;;;;;3.30;2.33;;;;;;;13.00;42.46;93266.31;5081117;28;20569;-77
2024/03/10 11:05:33;;;;;;;3.83;2.40;;;;;;;12.71;43.22;93255.56;5082978;28;20207;-78
2024/03/10 11:07:58;;;;;;;3.17;2.77;;;;;;;12.55;43.97;93263.97;5081889;28;20271;-78
2024/03/10 11:10:48;;;;;;;3.10;2.33;;;;;;;12.66;44.71;93265.84;5079233;28;20237;-77
2024/03/10 11:13:14;;;;;;;4.03;3.57;;;;;;;13.14;44.06;93267.72;5062462;28;20265;-78
2024/03/10 11:15:41;;;;;;;4.03;2.20;;;;;;;13.38;43.78;93270.50;5082526;28;20203;-78
2024/03/10 11:18:22;;;;;;;3.40;3.00;;;;;;;13.39;44.39;93282.50;5067111;28;20275;-78
2024/03/10 11:20:49;;;;;;;4.57;2.17;;;;;;;13.65;42.47;93291.81;5082805;28;20771;-78
2024/03/10 11:23:15;;;;;;;5.30;2.50;;;;;;;13.59;42.57;93290.88;5077300;28;20205;-78
2024/03/10 11:25:53;;;;;;;3.83;2.20;;;;;;;13.47;42.72;93300.47;5083810;28;20204;-78
2024/03/10 11:28:25;;;;;;;3.20;2.63;;;;;;;13.55;42.90;93316.59;5064444;28;20275;-78
2024/03/10 11:30:51;;;;;;;2.87;2.60;;;;;;;13.51;41.93;93312.81;5068242;28;20196;-78
2024/03/10 11:33:21;;;;;;;2.97;2.37;;;;;;;13.49;41.65;93314.06;5061617;28;20202;-77
2024/03/10 11:35:46;;;;;;;2.77;2.30;;;;;;;13.62;42.06;93315.72;5092663;28;20231;-77
2024/03/10 11:38:12;;;;;;;4.37;2.70;;;;;;;13.55;42.28;93310.59;5079619;28;20188;-78
2024/03/10 11:40:37;;;;;;;2.87;2.50;;;;;;;13.70;42.08;93318.03;5066828;28;21005;-78
2024/03/10 11:43:03;;;;;;;3.33;2.40;;;;;;;13.28;42.86;93310.91;5065074;28;20237;-78
2024/03/10 11:45:31;;;;;;;2.67;2.40;;;;;;;13.43;42.53;93314.94;5088019;28;20215;-78
2024/03/10 11:47:56;;;;;;;2.70;2.50;;;;;;;13.77;41.04;93316.13;5060830;28;20188;-78
2024/03/10 11:50:22;;;;;;;2.57;2.00;;;;;;;13.92;41.01;93313.13;5061175;28;20192;-78
2024/03/10 11:52:48;;;;;;;2.53;2.33;;;;;;;13.94;41.64;93309.25;5079991;28;20184;-77
2024/03/10 11:55:17;;;;;;;2.37;2.17;;;;;;;14.16;41.02;93305.13;5080496;28;20192;-78
2024/03/10 11:57:42;;;;;;;2.30;2.10;;;;;;;14.01;40.89;93311.78;5078859;28;20252;-78